Time;durP1;ratioP1;P1;durP2;ratioP2;P2;SDS_P1;SDS_P2;PMS_P1;PMS_P2;Temp;Humidity;BMP_temperature;BMP_pressure;BME280_temperature;BME280_humidity;BME280_pressure;Samples;Min_cycle;Max_cycle;Signal;HPM_P1;HPM_P2
2021/04/02 00:01:57;;;;;;;19.10;10.50;;;5.10;99.90;;;;;;5076768;28;20038;-68
2021/04/02 00:04:23;;;;;;;18.73;10.57;;;5.00;99.90;;;;;;5094834;28;20069;-68
2021/04/02 00:06:48;;;;;;;19.92;10.40;;;5.00;99.90;;;;;;5095329;28;20035;-68
2021/04/02 00:09:14;;;;;;;21.67;11.38;;;4.90;99.90;;;;;;5095338;28;20016;-68
2021/04/02 00:11:41;;;;;;;21.25;10.80;;;5.00;99.90;;;;;;5095025;28;20016;-68
2021/04/02 00:14:08;;;;;;;21.65;10.73;;;5.00;99.90;;;;;;5095266;28;20016;-68
2021/04/02 00:16:34;;;;;;;17.02;10.45;;;5.00;99.90;;;;;;5095167;28;20020;-68
2021/04/02 00:19:00;;;;;;;22.50;10.82;;;5.00;99.90;;;;;;5095149;28;20028;-68
2021/04/02 00:21:25;;;;;;;18.20;10.23;;;4.90;99.90;;;;;;5095337;28;20029;-68
2021/04/02 00:23:51;;;;;;;19.25;10.45;;;4.90;99.90;;;;;;5095065;28;20016;-68
2021/04/02 00:26:19;;;;;;;22.48;10.82;;;4.80;99.90;;;;;;5094574;28;20037;-68
2021/04/02 00:28:46;;;;;;;21.08;11.90;;;4.80;99.90;;;;;;5094671;28;20017;-67
2021/04/02 00:31:13;;;;;;;20.08;10.35;;;4.80;99.90;;;;;;5094931;28;20019;-68
2021/04/02 00:33:38;;;;;;;20.23;10.80;;;4.80;99.90;;;;;;5094914;28;20058;-68
2021/04/02 00:36:05;;;;;;;17.92;11.60;;;4.80;99.90;;;;;;5093691;28;20542;-68
2021/04/02 00:38:31;;;;;;;20.55;10.50;;;4.70;99.90;;;;;;5094789;28;20024;-68
2021/04/02 00:41:00;;;;;;;21.33;11.15;;;4.80;99.90;;;;;;5094762;28;20024;-68
2021/04/02 00:43:32;;;;;;;21.65;11.18;;;4.70;99.90;;;;;;5094740;28;20047;-68
2021/04/02 00:45:58;;;;;;;20.58;11.15;;;4.70;99.90;;;;;;5094343;28;20031;-68
2021/04/02 00:48:24;;;;;;;25.20;11.10;;;4.70;99.90;;;;;;5094618;28;20028;-68
2021/04/02 00:50:54;;;;;;;22.67;11.10;;;4.70;99.90;;;;;;5094027;28;20024;-68
2021/04/02 00:53:21;;;;;;;20.52;11.70;;;4.60;99.90;;;;;;5094561;28;20016;-68
2021/04/02 00:55:48;;;;;;;22.77;11.07;;;4.50;99.90;;;;;;5094465;28;20345;-67
2021/04/02 00:58:16;;;;;;;27.27;11.93;;;4.50;99.90;;;;;;5094132;28;20103;-68
2021/04/02 01:00:42;;;;;;;19.55;11.27;;;4.50;99.90;;;;;;5093878;28;20069;-68
2021/04/02 01:03:08;;;;;;;23.27;11.93;;;4.60;99.90;;;;;;5094375;28;20020;-67
2021/04/02 01:05:41;;;;;;;22.63;11.90;;;4.50;99.90;;;;;;5093242;28;20020;-68
2021/04/02 01:08:09;;;;;;;21.25;11.60;;;4.50;99.90;;;;;;5094329;28;20028;-68
2021/04/02 01:10:36;;;;;;;22.45;11.35;;;4.50;99.90;;;;;;5093982;28;20065;-68
2021/04/02 01:13:25;;;;;;;23.30;11.73;;;4.50;99.90;;;;;;5093968;28;20112;-68
2021/04/02 01:16:00;;;;;;;23.90;11.93;;;4.40;99.90;;;;;;5093585;28;20096;-68
2021/04/02 01:18:30;;;;;;;28.48;11.30;;;4.40;99.90;;;;;;5093843;28;20020;-68
2021/04/02 01:20:59;;;;;;;25.90;11.18;;;4.40;99.90;;;;;;5094170;28;20056;-68
2021/04/02 01:23:33;;;;;;;21.95;11.88;;;4.30;99.90;;;;;;5094109;28;20028;-68
2021/04/02 01:26:17;;;;;;;20.30;11.18;;;4.30;99.90;;;;;;5093687;28;20055;-68
2021/04/02 01:29:23;;;;;;;28.05;12.27;;;4.30;99.90;;;;;;5093547;28;20031;-68
2021/04/02 01:31:54;;;;;;;21.98;11.02;;;4.30;99.90;;;;;;5093454;28;20028;-68
2021/04/02 01:34:22;;;;;;;26.02;12.05;;;4.30;99.90;;;;;;5093480;28;20073;-68
2021/04/02 01:36:52;;;;;;;25.60;13.00;;;4.30;99.90;;;;;;5093736;28;20031;-68
2021/04/02 01:39:19;;;;;;;28.73;13.50;;;4.30;99.90;;;;;;5093978;28;20423;-68
2021/04/02 01:41:48;;;;;;;26.63;12.02;;;4.30;99.90;;;;;;5093696;28;20020;-68
2021/04/02 01:44:15;;;;;;;29.10;12.63;;;4.30;99.90;;;;;;5093927;28;20113;-68
2021/04/02 01:46:42;;;;;;;24.67;12.10;;;4.30;99.90;;;;;;5093829;28;20028;-68
2021/04/02 01:49:10;;;;;;;25.50;12.90;;;4.30;99.90;;;;;;5092877;28;20120;-68
2021/04/02 01:51:36;;;;;;;30.77;13.20;;;4.30;99.90;;;;;;5093854;28;20023;-68
2021/04/02 01:54:04;;;;;;;26.77;12.90;;;4.30;99.90;;;;;;5093269;28;20381;-68
2021/04/02 01:56:32;;;;;;;32.53;14.05;;;4.20;99.90;;;;;;5093799;28;20023;-68
2021/04/02 01:58:59;;;;;;;30.65;13.10;;;4.20;99.90;;;;;;5093788;28;20031;-68
2021/04/02 02:01:31;;;;;;;28.08;13.80;;;4.20;99.90;;;;;;5091946;28;20058;-67
2021/04/02 02:03:59;;;;;;;30.05;13.57;;;4.30;99.90;;;;;;5093470;28;20111;-68
2021/04/02 02:06:25;;;;;;;32.45;13.50;;;4.30;99.90;;;;;;5093653;28;20028;-68
2021/04/02 02:08:53;;;;;;;30.48;12.98;;;4.30;99.90;;;;;;5093689;28;20023;-68
2021/04/02 02:11:20;;;;;;;28.20;13.65;;;4.30;99.90;;;;;;5093415;28;20369;-68
2021/04/02 02:13:51;;;;;;;35.38;14.27;;;4.30;99.90;;;;;;5095980;28;20065;-68
2021/04/02 02:16:19;;;;;;;34.15;15.07;;;4.30;99.90;;;;;;5096488;28;20024;-68
2021/04/02 02:18:53;;;;;;;27.20;13.98;;;4.20;99.90;;;;;;5097409;28;20426;-68
2021/04/02 02:21:20;;;;;;;34.92;14.68;;;4.20;99.90;;;;;;5097375;28;20024;-68
2021/04/02 02:23:46;;;;;;;36.10;14.68;;;4.20;99.90;;;;;;5097318;28;20020;-68
2021/04/02 02:26:12;;;;;;;41.67;14.65;;;4.10;99.90;;;;;;5096863;28;20135;-68
2021/04/02 02:28:38;;;;;;;32.92;15.18;;;4.10;99.90;;;;;;5095972;28;20026;-68
2021/04/02 02:31:06;;;;;;;31.67;14.65;;;4.10;99.90;;;;;;5096677;28;20103;-68
2021/04/02 02:33:32;;;;;;;27.90;14.68;;;4.00;99.90;;;;;;5097245;28;20016;-67
2021/04/02 02:36:00;;;;;;;31.83;14.63;;;4.00;99.90;;;;;;5095706;28;20054;-68
2021/04/02 02:38:27;;;;;;;30.63;14.93;;;4.00;99.90;;;;;;5096835;28;20024;-68
2021/04/02 02:40:53;;;;;;;38.90;15.23;;;3.90;99.90;;;;;;5097032;28;20031;-67
2021/04/02 02:43:19;;;;;;;29.50;15.07;;;3.90;99.90;;;;;;5097003;28;20032;-68
2021/04/02 02:45:44;;;;;;;36.35;14.88;;;3.90;99.90;;;;;;5096615;28;20073;-68
2021/04/02 02:48:10;;;;;;;41.20;16.48;;;3.90;99.90;;;;;;5096913;28;20377;-67
2021/04/02 02:50:39;;;;;;;33.65;16.20;;;3.90;99.90;;;;;;5096864;28;20017;-68
2021/04/02 02:53:07;;;;;;;32.15;14.65;;;3.90;99.90;;;;;;5096785;28;20020;-68
2021/04/02 02:55:35;;;;;;;33.65;14.00;;;3.90;99.90;;;;;;5096786;28;20370;-68
2021/04/02 02:58:01;;;;;;;31.65;15.52;;;3.70;99.90;;;;;;5095061;28;20020;-68
2021/04/02 03:00:34;;;;;;;33.90;15.25;;;3.70;99.90;;;;;;5096126;28;20358;-68
2021/04/02 03:03:03;;;;;;;27.48;15.35;;;3.70;99.90;;;;;;5096696;28;20385;-68
2021/04/02 03:05:30;;;;;;;39.13;15.75;;;3.60;99.90;;;;;;5096560;28;20028;-68
2021/04/02 03:07:59;;;;;;;37.55;15.75;;;3.60;99.90;;;;;;5096467;28;20028;-68
2021/04/02 03:10:26;;;;;;;40.03;16.52;;;3.70;99.90;;;;;;5095934;28;20024;-68
2021/04/02 03:12:53;;;;;;;33.58;15.85;;;3.60;99.90;;;;;;5096454;28;20024;-68
2021/04/02 03:15:19;;;;;;;41.13;15.52;;;3.60;99.90;;;;;;5096423;28;20051;-67
2021/04/02 03:17:51;;;;;;;42.45;15.98;;;3.60;99.90;;;;;;5096407;28;20452;-68
2021/04/02 03:20:18;;;;;;;36.00;16.88;;;3.60;99.90;;;;;;5096318;28;20028;-68
2021/04/02 03:22:45;;;;;;;38.92;17.05;;;3.60;99.90;;;;;;5096289;28;20024;-68
2021/04/02 03:25:15;;;;;;;34.25;16.38;;;3.60;99.90;;;;;;5096130;28;20415;-68
2021/04/02 03:27:41;;;;;;;34.17;16.45;;;3.70;99.90;;;;;;5095441;28;20044;-68
2021/04/02 03:30:11;;;;;;;38.78;16.95;;;3.80;99.90;;;;;;5095564;28;20024;-68
2021/04/02 03:32:39;;;;;;;37.67;17.42;;;3.80;99.90;;;;;;5095528;28;20085;-68
2021/04/02 03:35:07;;;;;;;44.28;18.30;;;3.90;99.90;;;;;;5095759;28;20017;-68
2021/04/02 03:37:35;;;;;;;49.15;19.00;;;4.00;99.90;;;;;;5095977;28;20028;-68
2021/04/02 03:40:04;;;;;;;47.03;18.95;;;4.00;99.90;;;;;;5094480;28;20095;-68
2021/04/02 03:42:31;;;;;;;48.20;18.20;;;4.10;99.90;;;;;;5095897;28;20039;-68
2021/04/02 03:44:59;;;;;;;41.55;19.17;;;4.20;99.90;;;;;;5095582;28;20027;-68
2021/04/02 03:47:26;;;;;;;51.55;21.52;;;4.10;99.90;;;;;;5094267;28;20020;-67
2021/04/02 03:49:53;;;;;;;47.72;21.98;;;4.10;99.90;;;;;;5095757;28;20202;-67
2021/04/02 03:52:27;;;;;;;50.05;21.65;;;4.10;99.90;;;;;;5095430;28;20020;-67
2021/04/02 03:54:55;;;;;;;52.83;22.75;;;4.10;99.90;;;;;;5094527;28;20031;-67
2021/04/02 03:57:22;;;;;;;51.38;24.00;;;4.10;99.90;;;;;;5093809;28;20111;-67
2021/04/02 03:59:51;;;;;;;55.13;22.98;;;4.10;99.90;;;;;;5095483;28;20090;-67
2021/04/02 04:02:18;;;;;;;53.55;24.85;;;4.10;99.90;;;;;;5094378;28;20024;-67
2021/04/02 04:04:45;;;;;;;63.65;26.27;;;4.10;99.90;;;;;;5093616;28;20054;-67
2021/04/02 04:07:11;;;;;;;60.50;25.80;;;4.10;99.90;;;;;;5093657;28;20028;-67
2021/04/02 04:09:40;;;;;;;57.63;24.73;;;4.10;99.90;;;;;;5095370;28;20023;-67
2021/04/02 04:12:09;;;;;;;54.20;26.40;;;4.10;99.90;;;;;;5095015;28;20027;-67
2021/04/02 04:14:38;;;;;;;60.88;26.50;;;4.10;99.90;;;;;;5095200;28;20017;-67
2021/04/02 04:17:05;;;;;;;54.83;25.13;;;4.10;99.90;;;;;;5093763;28;20047;-67
2021/04/02 04:19:33;;;;;;;53.38;26.25;;;4.20;99.90;;;;;;5094007;28;20020;-67
2021/04/02 04:22:02;;;;;;;54.45;25.95;;;4.10;99.90;;;;;;5094884;28;20080;-67
2021/04/02 04:24:28;;;;;;;56.80;25.75;;;4.10;99.90;;;;;;5095065;28;20095;-67
2021/04/02 04:26:56;;;;;;;59.47;25.02;;;4.20;99.90;;;;;;5093526;28;20063;-67
2021/04/02 04:29:27;;;;;;;57.15;26.95;;;4.20;99.90;;;;;;5094996;28;20024;-67
2021/04/02 04:31:54;;;;;;;53.10;27.15;;;4.20;99.90;;;;;;5094949;28;20051;-67
2021/04/02 04:34:21;;;;;;;51.80;26.00;;;4.20;99.90;;;;;;5094919;28;20048;-67
2021/04/02 04:36:47;;;;;;;65.18;26.85;;;4.20;99.90;;;;;;5092823;28;20374;-67
2021/04/02 04:39:14;;;;;;;53.50;25.67;;;4.20;99.90;;;;;;5094814;28;20036;-67
2021/04/02 04:41:42;;;;;;;59.97;28.05;;;4.20;99.90;;;;;;5094722;28;20492;-67
2021/04/02 04:44:09;;;;;;;57.35;27.30;;;4.20;99.90;;;;;;5094748;28;20103;-67
2021/04/02 04:46:34;;;;;;;63.90;27.83;;;4.30;99.90;;;;;;5094324;28;20119;-67
2021/04/02 04:49:00;;;;;;;64.80;27.02;;;4.30;99.90;;;;;;5094669;28;20067;-67
2021/04/02 04:51:29;;;;;;;56.20;27.88;;;4.30;99.90;;;;;;5094595;28;20387;-67
2021/04/02 04:53:57;;;;;;;65.78;27.90;;;4.30;99.90;;;;;;5092842;28;20028;-67
2021/04/02 04:56:27;;;;;;;62.10;28.58;;;4.30;99.90;;;;;;5094256;28;20059;-67
2021/04/02 04:58:56;;;;;;;60.15;28.63;;;4.40;99.90;;;;;;5093056;28;20461;-67
2021/04/02 05:01:25;;;;;;;62.03;27.40;;;4.40;99.90;;;;;;5094459;28;20024;-67
2021/04/02 05:03:52;;;;;;;61.90;26.88;;;4.40;99.90;;;;;;5094144;28;20384;-67
2021/04/02 05:06:21;;;;;;;62.78;26.95;;;4.50;99.90;;;;;;5094044;28;20028;-67
2021/04/02 05:08:48;;;;;;;51.35;27.52;;;4.50;99.90;;;;;;5092556;28;20023;-67
2021/04/02 05:11:16;;;;;;;56.85;25.65;;;4.50;99.90;;;;;;5094074;28;20111;-67
2021/04/02 05:13:43;;;;;;;50.75;24.13;;;4.50;99.90;;;;;;5093999;28;20491;-67
2021/04/02 05:16:10;;;;;;;49.78;23.90;;;4.60;99.90;;;;;;5094271;28;20028;-67
2021/04/02 05:18:36;;;;;;;51.83;25.33;;;4.60;99.90;;;;;;5093688;28;20028;-68
2021/04/02 05:21:02;;;;;;;50.80;23.70;;;4.60;99.90;;;;;;5093947;28;20431;-67
2021/04/02 05:23:28;;;;;;;47.28;22.40;;;4.70;99.90;;;;;;5094204;28;20511;-67
2021/04/02 05:25:54;;;;;;;47.30;23.58;;;4.60;99.90;;;;;;5093742;28;20114;-68
2021/04/02 05:28:19;;;;;;;50.35;21.95;;;4.70;99.90;;;;;;5094125;28;20020;-67
2021/04/02 05:30:45;;;;;;;47.35;23.80;;;4.70;99.90;;;;;;5094132;28;20043;-66
2021/04/02 05:33:12;;;;;;;45.10;22.98;;;4.70;99.90;;;;;;5092554;28;20427;-67
2021/04/02 05:35:37;;;;;;;47.42;22.65;;;4.70;99.90;;;;;;5094057;28;20027;-67
2021/04/02 05:38:03;;;;;;;40.47;20.70;;;4.80;99.90;;;;;;5093502;28;20032;-67
2021/04/02 05:40:29;;;;;;;40.00;20.33;;;4.90;99.90;;;;;;5093761;28;20038;-67
2021/04/02 05:43:11;;;;;;;38.83;19.98;;;4.90;99.90;;;;;;5093436;28;20040;-67
2021/04/02 05:45:38;;;;;;;37.30;18.77;;;5.00;99.90;;;;;;5092213;28;20024;-68
2021/04/02 05:48:05;;;;;;;34.85;17.40;;;4.90;99.90;;;;;;5095163;28;20381;-67
2021/04/02 05:50:33;;;;;;;35.42;18.65;;;4.90;99.90;;;;;;5097773;28;20423;-67
2021/04/02 05:53:04;;;;;;;41.90;20.73;;;4.90;99.90;;;;;;5098004;28;20012;-67
2021/04/02 05:55:33;;;;;;;37.80;18.63;;;4.80;99.90;;;;;;5097965;28;20076;-67
2021/04/02 05:58:00;;;;;;;40.00;19.30;;;4.90;99.90;;;;;;5097658;28;20031;-67
2021/04/02 06:00:26;;;;;;;37.38;18.38;;;4.90;99.90;;;;;;5097584;28;20019;-67
2021/04/02 06:02:52;;;;;;;41.67;20.55;;;5.00;99.90;;;;;;5097823;28;20342;-68
2021/04/02 06:05:17;;;;;;;41.30;19.95;;;5.00;99.90;;;;;;5097774;28;20024;-67
2021/04/02 06:07:43;;;;;;;44.42;21.27;;;5.00;99.90;;;;;;5097636;28;20024;-67
2021/04/02 06:10:09;;;;;;;40.00;20.67;;;5.10;99.90;;;;;;5097657;28;20052;-67
2021/04/02 06:12:36;;;;;;;48.13;22.95;;;5.10;99.90;;;;;;5097615;28;20047;-67
2021/04/02 06:15:03;;;;;;;51.40;23.13;;;5.20;99.90;;;;;;5097337;28;20524;-67
2021/04/02 06:17:58;;;;;;;47.47;23.52;;;5.20;99.90;;;;;;5097532;28;20457;-67
2021/04/02 06:20:26;;;;;;;47.28;23.80;;;5.30;99.90;;;;;;5095658;28;20046;-67
2021/04/02 06:23:13;;;;;;;48.60;25.33;;;5.30;99.90;;;;;;5095615;28;20038;-67
2021/04/02 06:25:45;;;;;;;46.90;24.25;;;5.20;99.90;;;;;;5096898;28;20527;-68
2021/04/02 06:28:15;;;;;;;61.08;26.58;;;5.20;99.90;;;;;;5095501;28;20123;-67
2021/04/02 06:30:42;;;;;;;54.00;26.08;;;5.30;99.90;;;;;;5096737;28;20028;-67
2021/04/02 06:33:09;;;;;;;65.63;28.45;;;5.20;99.90;;;;;;5078840;28;20053;-67
2021/04/02 06:35:40;;;;;;;67.60;29.55;;;5.30;99.90;;;;;;5078604;28;20027;-67
2021/04/02 06:38:05;;;;;;;62.65;30.08;;;5.30;99.90;;;;;;5097134;28;20020;-67
2021/04/02 06:40:31;;;;;;;51.17;24.13;;;5.30;99.90;;;;;;5095816;28;20031;-67
2021/04/02 06:43:00;;;;;;;52.08;22.83;;;5.20;99.90;;;;;;5097018;28;20028;-68
2021/04/02 06:45:37;;;;;;;47.38;23.23;;;5.20;99.90;;;;;;5097002;28;20020;-67
2021/04/02 06:48:11;;;;;;;43.75;21.48;;;5.20;99.90;;;;;;5096889;28;20031;-67
2021/04/02 06:50:37;;;;;;;49.03;22.33;;;5.20;99.90;;;;;;5096607;28;20022;-67
2021/04/02 06:53:05;;;;;;;41.83;21.23;;;5.10;99.90;;;;;;5096579;28;20027;-67
2021/04/02 06:55:31;;;;;;;48.00;22.80;;;5.20;99.90;;;;;;5096847;28;20028;-67
2021/04/02 06:58:04;;;;;;;45.95;22.30;;;5.10;99.90;;;;;;5094958;28;20111;-67
2021/04/02 07:00:29;;;;;;;49.63;23.33;;;5.10;99.90;;;;;;5096436;28;20027;-67
2021/04/02 07:02:55;;;;;;;44.85;23.20;;;5.10;99.90;;;;;;5095277;28;20029;-67
2021/04/02 07:05:23;;;;;;;49.85;22.67;;;5.20;99.90;;;;;;5096360;28;20028;-67
2021/04/02 07:07:59;;;;;;;53.20;24.23;;;5.30;99.90;;;;;;5095991;28;20461;-67
2021/04/02 07:10:26;;;;;;;50.80;22.95;;;5.20;99.90;;;;;;5096535;28;20016;-67
2021/04/02 07:12:52;;;;;;;50.83;22.77;;;5.20;99.90;;;;;;5096496;28;20514;-68
2021/04/02 07:15:18;;;;;;;48.83;24.30;;;5.30;99.90;;;;;;5096475;28;20020;-68
2021/04/02 07:17:45;;;;;;;48.22;21.92;;;5.20;99.90;;;;;;5078277;28;20020;-67
2021/04/02 07:20:12;;;;;;;50.80;20.55;;;5.30;99.90;;;;;;5096392;28;20020;-68
2021/04/02 07:22:40;;;;;;;42.80;20.50;;;5.30;99.90;;;;;;5094873;28;20020;-68
2021/04/02 07:25:06;;;;;;;40.15;19.83;;;5.30;99.90;;;;;;5096331;28;20479;-67
2021/04/02 07:27:32;;;;;;;47.85;20.10;;;5.40;99.90;;;;;;5094325;28;20048;-67
2021/04/02 07:29:58;;;;;;;48.33;20.58;;;5.30;99.90;;;;;;5094385;28;20064;-67
2021/04/02 07:32:24;;;;;;;44.42;20.70;;;5.30;99.90;;;;;;5094944;28;20048;-68
2021/04/02 07:34:51;;;;;;;52.53;21.50;;;5.30;99.90;;;;;;5096120;28;20027;-68
2021/04/02 07:37:18;;;;;;;48.70;19.67;;;5.40;99.90;;;;;;5094317;28;20157;-68
2021/04/02 07:39:47;;;;;;;45.08;18.35;;;5.40;99.90;;;;;;5095718;28;20454;-68
2021/04/02 07:42:12;;;;;;;39.95;18.52;;;5.50;99.90;;;;;;5095934;28;20107;-68
2021/04/02 07:44:48;;;;;;;42.42;20.52;;;5.50;99.90;;;;;;5095588;28;20441;-67
2021/04/02 07:47:14;;;;;;;42.08;18.33;;;5.60;99.90;;;;;;5094330;28;20044;-67
2021/04/02 07:49:54;;;;;;;43.00;18.77;;;5.70;99.90;;;;;;5095769;28;20052;-68
2021/04/02 07:52:40;;;;;;;45.00;18.52;;;5.90;99.90;;;;;;5094397;28;20023;-68
2021/04/02 07:55:14;;;;;;;36.13;17.48;;;6.00;99.90;;;;;;5095050;28;20541;-68
2021/04/02 07:58:02;;;;;;;41.45;17.92;;;6.10;99.90;;;;;;5095554;28;20032;-68
2021/04/02 08:00:33;;;;;;;40.05;17.55;;;6.10;99.90;;;;;;5128075;27;20024;-68
2021/04/02 08:03:16;;;;;;;36.45;16.35;;;6.10;99.90;;;;;;5095209;28;20438;-68
2021/04/02 08:05:55;;;;;;;29.80;15.75;;;6.20;99.90;;;;;;5094844;28;20103;-67
2021/04/02 08:08:24;;;;;;;37.67;14.85;;;6.30;99.90;;;;;;5094858;28;20028;-68
2021/04/02 08:11:07;;;;;;;28.88;14.23;;;6.50;99.90;;;;;;5094500;28;20020;-68
2021/04/02 08:13:57;;;;;;;25.88;14.05;;;6.70;99.90;;;;;;5095044;28;20020;-68
2021/04/02 08:16:54;;;;;;;28.70;12.98;;;6.70;99.90;;;;;;5095261;28;20060;-68
2021/04/02 08:19:26;;;;;;;26.20;12.38;;;6.80;99.90;;;;;;5094600;28;20032;-67
2021/04/02 08:21:56;;;;;;;28.88;12.07;;;6.90;99.90;;;;;;5095178;28;20099;-68
2021/04/02 08:24:26;;;;;;;25.33;12.10;;;7.20;99.90;;;;;;5095067;28;20036;-68
2021/04/02 08:26:53;;;;;;;19.83;10.10;;;7.50;99.90;;;;;;5094361;28;20040;-69
2021/04/02 08:29:21;;;;;;;19.83;9.45;;;8.00;99.90;;;;;;5095005;28;20050;-68
2021/04/02 08:31:50;;;;;;;21.15;9.35;;;8.30;99.90;;;;;;5094696;28;20027;-67
2021/04/02 08:34:19;;;;;;;21.70;8.82;;;8.50;99.90;;;;;;5094946;28;20020;-68
2021/04/02 08:36:46;;;;;;;18.15;8.20;;;8.70;99.90;;;;;;5094886;28;20051;-67
2021/04/02 08:39:11;;;;;;;21.00;9.00;;;8.90;99.90;;;;;;5094865;28;20020;-67
2021/04/02 08:41:37;;;;;;;19.52;8.23;;;8.70;99.90;;;;;;5094525;28;20027;-68
2021/04/02 08:44:03;;;;;;;13.68;8.43;;;8.70;99.90;;;;;;5093576;28;20032;-68
2021/04/02 08:46:46;;;;;;;13.25;7.55;;;8.90;99.90;;;;;;5094626;28;20028;-68
2021/04/02 08:49:13;;;;;;;15.15;7.50;;;8.60;99.90;;;;;;5092840;28;20016;-68
2021/04/02 08:51:40;;;;;;;16.08;7.03;;;8.50;99.90;;;;;;5094606;28;20154;-68
2021/04/02 08:54:13;;;;;;;17.52;8.00;;;8.90;99.90;;;;;;5094606;28;20445;-67
2021/04/02 08:56:40;;;;;;;15.18;7.97;;;9.30;99.90;;;;;;5093131;28;20056;-66
2021/04/02 08:59:08;;;;;;;14.50;7.25;;;9.60;99.90;;;;;;5075854;28;20431;-68
2021/04/02 09:01:37;;;;;;;13.68;8.05;;;9.80;99.90;;;;;;5094486;28;20099;-67
2021/04/02 09:04:05;;;;;;;12.48;7.30;;;9.60;99.90;;;;;;5092653;28;20404;-67
2021/04/02 09:06:31;;;;;;;15.27;7.93;;;9.00;99.90;;;;;;5094344;28;20479;-66
2021/04/02 09:08:57;;;;;;;13.75;7.80;;;8.80;99.90;;;;;;5094358;28;20036;-67
2021/04/02 09:11:23;;;;;;;13.18;7.82;;;8.40;99.90;;;;;;5094329;28;20034;-67
2021/04/02 09:13:50;;;;;;;12.40;7.47;;;8.30;99.90;;;;;;5094309;28;20024;-67
2021/04/02 09:16:18;;;;;;;17.58;8.05;;;8.40;99.90;;;;;;5093136;28;20076;-68
2021/04/02 09:18:48;;;;;;;12.50;6.90;;;8.80;99.90;;;;;;5092438;28;20028;-67
2021/04/02 09:21:14;;;;;;;17.88;7.78;;;8.90;99.90;;;;;;5093850;28;20433;-67
2021/04/02 09:23:40;;;;;;;12.73;7.35;;;8.80;99.90;;;;;;5093868;28;20028;-66
2021/04/02 09:26:08;;;;;;;18.27;7.57;;;8.40;99.90;;;;;;5093700;28;20079;-68
2021/04/02 09:28:36;;;;;;;16.65;7.53;;;8.00;99.90;;;;;;5094137;28;20361;-68
2021/04/02 09:31:23;;;;;;;11.68;6.97;;;8.00;99.90;;;;;;5093863;28;20027;-67
2021/04/02 09:33:59;;;;;;;13.43;6.70;;;8.10;99.90;;;;;;5093548;28;20020;-68
2021/04/02 09:36:27;;;;;;;14.65;7.03;;;8.20;99.90;;;;;;5094065;28;20453;-68
2021/04/02 09:39:06;;;;;;;11.15;6.68;;;8.00;99.90;;;;;;5094017;28;20409;-68
2021/04/02 09:41:33;;;;;;;15.70;6.75;;;8.10;99.90;;;;;;5094035;28;20024;-66
2021/04/02 09:44:08;;;;;;;15.40;7.32;;;8.10;99.90;;;;;;5093959;28;20023;-67
2021/04/02 09:46:35;;;;;;;10.73;7.65;;;8.20;99.90;;;;;;5093908;28;20368;-67
2021/04/02 09:49:22;;;;;;;13.13;6.65;;;8.00;99.90;;;;;;5092833;28;20453;-68
2021/04/02 09:51:52;;;;;;;12.88;7.45;;;7.90;99.90;;;;;;5092091;28;20051;-68
2021/04/02 09:54:19;;;;;;;18.05;6.50;;;7.90;99.90;;;;;;5093674;28;20020;-68
2021/04/02 09:56:45;;;;;;;12.82;7.53;;;8.20;99.90;;;;;;5092738;28;20028;-68
2021/04/02 09:59:12;;;;;;;13.15;7.32;;;8.20;99.90;;;;;;5093326;28;20054;-68
2021/04/02 10:01:39;;;;;;;16.27;7.40;;;8.30;99.90;;;;;;5093539;28;20024;-67
2021/04/02 10:04:06;;;;;;;11.23;6.80;;;8.60;99.90;;;;;;5093740;28;20061;-68
2021/04/02 10:06:32;;;;;;;15.77;8.07;;;8.70;99.90;;;;;;5094028;28;20020;-68
2021/04/02 10:08:58;;;;;;;15.00;8.35;;;8.20;99.90;;;;;;5093774;28;20048;-68
2021/04/02 10:11:24;;;;;;;16.23;7.80;;;8.20;99.90;;;;;;5093762;28;20485;-68
2021/04/02 10:13:50;;;;;;;19.85;7.32;;;8.20;99.90;;;;;;5093746;28;20461;-68
2021/04/02 10:16:17;;;;;;;15.27;6.68;;;8.50;99.90;;;;;;5093703;28;20153;-68
2021/04/02 10:18:45;;;;;;;14.77;7.85;;;8.70;99.90;;;;;;5093683;28;20030;-68
2021/04/02 10:21:10;;;;;;;16.52;7.95;;;8.90;99.90;;;;;;5091813;28;20028;-68
2021/04/02 10:23:36;;;;;;;18.38;7.97;;;9.40;99.90;;;;;;5093305;28;20032;-68
2021/04/02 10:26:02;;;;;;;10.43;6.43;;;9.30;99.90;;;;;;5093222;28;20048;-68
2021/04/02 10:28:28;;;;;;;12.57;6.47;;;8.90;99.90;;;;;;5093205;28;20012;-68
2021/04/02 10:30:54;;;;;;;16.23;7.03;;;9.20;99.90;;;;;;5091735;28;20538;-68
2021/04/02 10:33:19;;;;;;;10.63;5.72;;;8.50;99.90;;;;;;5092087;28;20103;-68
2021/04/02 10:35:45;;;;;;;18.83;6.63;;;8.50;99.90;;;;;;5096878;28;20083;-68
2021/04/02 10:38:11;;;;;;;11.77;6.53;;;8.40;99.90;;;;;;5097219;28;20080;-68
2021/04/02 10:40:37;;;;;;;9.15;5.57;;;8.50;99.90;;;;;;5097086;28;20047;-68
2021/04/02 10:43:03;;;;;;;8.13;5.82;;;8.40;99.90;;;;;;5096822;28;20472;-69
2021/04/02 10:45:29;;;;;;;12.80;5.38;;;8.30;99.90;;;;;;5096932;28;20039;-68
2021/04/02 10:47:55;;;;;;;11.77;5.90;;;8.60;99.90;;;;;;5096694;28;20389;-68
2021/04/02 10:50:23;;;;;;;12.52;5.63;;;8.40;99.90;;;;;;5096983;28;20024;-68
2021/04/02 10:52:49;;;;;;;9.02;5.35;;;8.30;99.90;;;;;;5095468;28;20111;-68
2021/04/02 10:55:14;;;;;;;14.00;6.35;;;8.40;99.90;;;;;;5096860;28;20047;-68
2021/04/02 10:57:40;;;;;;;11.48;5.53;;;8.50;99.90;;;;;;5095412;28;20044;-68
2021/04/02 11:00:08;;;;;;;10.70;5.30;;;8.60;99.90;;;;;;5096221;28;20024;-67
2021/04/02 11:02:34;;;;;;;14.80;5.57;;;8.60;99.90;;;;;;5096198;28;20112;-68
2021/04/02 11:05:00;;;;;;;11.80;5.75;;;8.50;99.90;;;;;;5096697;28;20051;-68
2021/04/02 11:07:26;;;;;;;13.38;5.65;;;8.40;99.90;;;;;;5095370;28;20516;-68
2021/04/02 11:09:52;;;;;;;9.48;5.88;;;8.60;99.90;;;;;;5096605;28;20063;-68
2021/04/02 11:12:17;;;;;;;15.57;5.72;;;8.50;99.90;;;;;;5096213;28;20028;-68
2021/04/02 11:14:43;;;;;;;13.88;5.63;;;8.70;99.90;;;;;;5096475;28;20494;-68
2021/04/02 11:17:08;;;;;;;12.32;5.80;;;8.70;99.90;;;;;;5095470;28;20035;-68
2021/04/02 11:19:34;;;;;;;7.82;5.63;;;8.60;99.90;;;;;;5094697;28;20084;-68
2021/04/02 11:21:59;;;;;;;12.38;5.80;;;8.60;99.90;;;;;;5096355;28;20027;-68
2021/04/02 11:24:25;;;;;;;15.57;5.43;;;8.80;99.90;;;;;;5094511;28;20034;-69
2021/04/02 11:26:51;;;;;;;12.55;5.22;;;8.90;99.90;;;;;;5095667;28;20119;-68
2021/04/02 11:29:17;;;;;;;8.20;4.82;;;8.90;99.90;;;;;;5096206;28;20028;-68
2021/04/02 11:31:42;;;;;;;14.10;4.90;;;8.60;99.90;;;;;;5094725;28;20579;-68
2021/04/02 11:34:08;;;;;;;15.65;5.55;;;8.50;99.90;;;;;;5096093;28;20024;-68
2021/04/02 11:36:33;;;;;;;10.63;5.05;;;8.40;99.90;;;;;;5096066;28;20024;-67
2021/04/02 11:38:59;;;;;;;18.02;4.95;;;8.30;99.90;;;;;;5096026;28;20028;-67
2021/04/02 11:41:24;;;;;;;9.57;4.13;;;8.00;99.90;;;;;;5095941;28;20031;-67
2021/04/02 11:43:50;;;;;;;11.35;5.00;;;7.90;99.90;;;;;;5095665;28;20034;-67
2021/04/02 11:46:17;;;;;;;12.43;4.85;;;7.70;99.90;;;;;;5095767;28;20097;-68
2021/04/02 11:48:43;;;;;;;12.07;4.50;;;7.90;99.90;;;;;;5095890;28;20066;-68
2021/04/02 11:51:09;;;;;;;14.20;4.68;;;8.10;99.90;;;;;;5095785;28;20047;-68
2021/04/02 11:53:34;;;;;;;13.25;5.40;;;8.20;99.90;;;;;;5095705;28;20524;-68
2021/04/02 11:56:00;;;;;;;15.90;6.03;;;8.50;99.90;;;;;;5093961;28;20111;-68
2021/04/02 11:58:25;;;;;;;14.40;5.22;;;8.60;99.90;;;;;;5095348;28;20099;-68
2021/04/02 12:00:51;;;;;;;16.27;6.05;;;8.80;99.90;;;;;;5093774;28;20031;-68
2021/04/02 12:03:17;;;;;;;15.35;5.82;;;9.00;99.90;;;;;;5093870;28;20056;-68
2021/04/02 12:05:43;;;;;;;11.38;5.70;;;8.90;99.90;;;;;;5095464;28;20066;-68
2021/04/02 12:08:08;;;;;;;12.90;6.22;;;9.00;99.90;;;;;;5095311;28;20067;-68
2021/04/02 12:10:34;;;;;;;16.40;6.38;;;9.10;99.90;;;;;;5095345;28;20480;-68
2021/04/02 12:12:59;;;;;;;11.07;5.90;;;8.90;99.90;;;;;;5095250;28;20377;-68
2021/04/02 12:15:25;;;;;;;13.75;5.80;;;9.00;99.90;;;;;;5094690;28;20061;-68
2021/04/02 12:17:50;;;;;;;17.77;5.47;;;9.00;99.90;;;;;;5095254;28;20028;-68
2021/04/02 12:20:17;;;;;;;11.35;5.68;;;9.00;99.90;;;;;;5094885;28;20028;-68
2021/04/02 12:22:43;;;;;;;17.58;5.70;;;9.10;99.90;;;;;;5094853;28;20028;-68
2021/04/02 12:25:11;;;;;;;14.35;5.75;;;9.10;99.90;;;;;;5093298;28;20028;-68
2021/04/02 12:27:37;;;;;;;12.13;5.45;;;9.20;99.90;;;;;;5093111;28;20123;-68
2021/04/02 12:30:06;;;;;;;13.35;4.68;;;9.30;99.90;;;;;;5093784;28;20107;-68
2021/04/02 12:32:32;;;;;;;11.55;5.45;;;9.10;99.90;;;;;;5094647;28;20461;-68
2021/04/02 12:34:57;;;;;;;14.98;5.47;;;9.40;99.90;;;;;;5093138;28;20035;-68
2021/04/02 12:37:23;;;;;;;12.15;5.95;;;9.30;99.90;;;;;;5094291;28;20027;-67
2021/04/02 12:39:48;;;;;;;19.98;5.80;;;9.10;99.90;;;;;;5093832;28;20111;-68
2021/04/02 12:42:14;;;;;;;12.25;5.13;;;9.30;99.90;;;;;;5093615;28;20052;-68
2021/04/02 12:44:39;;;;;;;11.10;5.43;;;9.30;99.90;;;;;;5094404;28;20032;-68
2021/04/02 12:47:05;;;;;;;17.52;6.32;;;9.10;99.90;;;;;;5094347;28;20103;-67